Mount Forest, Canada
Current Conditions -  °F | °C
As of 11:40 AM on Monday 26 Jan 2015 (Local Time) from CYKF Reporting Station
Light Snow Light Snow  
Wind Chill:   Ceiling: Unl
Heat Index: 14°   Visibility: 9mi
Dew Point:   Wind: 13mph
Humidity: 73%   Direction: 50°NE
Pressure: 29.92"   Gusts: NA
Location:  43.98°N, 80.73°W
Report Text: CYKF 261640Z AUTO 05011KT 9SM -SN CLR M10/M14 A2992 RMK SLP155
Loading
Personal Weather Stations






























Interactive Weather Map New forecast layout! Learn more

10-Day Weather Forecast

Advertisements
Track Severe Weather on mobile